createdAt,value
2022-10-02T00:01:05.017Z,92.21
2022-10-02T00:03:37.208Z,92.58
2022-10-02T00:06:09.325Z,92.13
2022-10-02T00:08:39.159Z,92.02
2022-10-02T00:11:10.670Z,91.93
2022-10-02T00:13:41.161Z,90.99
2022-10-02T00:16:18.130Z,90.41
2022-10-02T00:18:47.094Z,90.08
2022-10-02T00:21:24.101Z,89.89
2022-10-02T00:23:54.942Z,89.47
2022-10-02T00:26:26.281Z,90.25
2022-10-02T00:29:00.281Z,90.54
2022-10-02T00:31:35.443Z,90.75
2022-10-02T00:34:19.836Z,90.68
2022-10-02T00:36:55.258Z,90.91
2022-10-02T00:39:32.474Z,91.78
2022-10-02T00:42:20.221Z,91.96
2022-10-02T00:44:56.156Z,91.80
2022-10-02T00:47:31.193Z,92.17
2022-10-02T00:50:05.348Z,92.42
2022-10-02T00:53:00.748Z,92.33
2022-10-02T00:55:46.790Z,92.73
2022-10-02T00:58:32.233Z,93.41
2022-10-02T01:01:04.803Z,93.46
2022-10-02T01:03:35.944Z,93.20
2022-10-02T01:06:04.402Z,93.04
2022-10-02T01:08:32.584Z,93.44
2022-10-02T01:11:01.155Z,93.49
2022-10-02T01:13:31.619Z,93.45
2022-10-02T01:16:01.258Z,93.81
2022-10-02T01:18:30.767Z,93.70
2022-10-02T01:21:01.331Z,93.29
2022-10-02T01:23:33.490Z,93.88
2022-10-02T01:26:03.076Z,93.88
2022-10-02T01:28:31.121Z,94.50
2022-10-02T01:31:01.957Z,95.13
2022-10-02T01:33:29.994Z,94.96
2022-10-02T01:35:58.335Z,95.05
2022-10-02T01:38:26.980Z,94.80
2022-10-02T01:40:54.905Z,95.06
2022-10-02T01:43:26.557Z,94.57
2022-10-02T01:46:00.580Z,95.35
2022-10-02T01:48:39.987Z,94.49
2022-10-02T01:51:18.461Z,94.94
2022-10-02T01:53:50.390Z,94.58
2022-10-02T01:56:22.674Z,95.17
2022-10-02T01:59:00.752Z,94.65
2022-10-02T02:01:41.636Z,95.38
2022-10-02T02:04:16.635Z,94.49
2022-10-02T02:06:51.160Z,94.78
2022-10-02T02:09:22.455Z,94.78
2022-10-02T02:11:54.914Z,94.53
2022-10-02T02:14:27.057Z,94.26
2022-10-02T02:16:57.546Z,94.26
2022-10-02T02:19:27.623Z,94.79
2022-10-02T02:21:59.293Z,94.08
2022-10-02T02:24:29.488Z,94.12
2022-10-02T02:27:00.114Z,94.20
2022-10-02T02:29:31.405Z,94.18
2022-10-02T02:32:01.085Z,94.16
2022-10-02T02:34:31.711Z,93.50
2022-10-02T02:37:06.014Z,93.86
2022-10-02T02:39:37.910Z,93.77
2022-10-02T02:42:09.109Z,94.33
2022-10-02T02:44:41.889Z,94.48
2022-10-02T02:47:12.900Z,94.68
2022-10-02T02:49:49.476Z,94.45
2022-10-02T02:52:20.828Z,94.06
2022-10-02T02:54:54.062Z,93.15
2022-10-02T02:57:27.279Z,93.49
2022-10-02T02:59:59.637Z,93.63
2022-10-02T03:02:27.621Z,93.65
2022-10-02T03:04:55.534Z,93.28
2022-10-02T03:07:23.676Z,93.37
2022-10-02T03:10:01.580Z,93.43
2022-10-02T03:12:40.972Z,93.00
2022-10-02T03:15:28.518Z,93.63
2022-10-02T03:18:11.659Z,93.36
2022-10-02T03:20:43.941Z,93.03
2022-10-02T03:23:18.629Z,93.36
2022-10-02T03:25:53.009Z,93.53
2022-10-02T03:28:50.510Z,93.54
2022-10-02T03:31:16.292Z,93.42
2022-10-02T03:33:45.340Z,93.88
2022-10-02T03:36:14.269Z,93.99
2022-10-02T03:38:43.454Z,93.59
2022-10-02T03:41:11.309Z,93.77
2022-10-02T03:43:39.696Z,93.87
2022-10-02T03:46:07.908Z,94.44
2022-10-02T03:48:39.131Z,94.06
2022-10-02T03:51:07.346Z,93.81
2022-10-02T03:53:35.601Z,93.98
2022-10-02T03:56:09.056Z,94.29
2022-10-02T03:58:39.671Z,93.96
2022-10-02T04:01:12.352Z,94.02
2022-10-02T04:03:47.029Z,94.20
2022-10-02T04:06:17.266Z,94.27
2022-10-02T04:08:47.527Z,94.07
2022-10-02T04:11:18.789Z,94.81
2022-10-02T04:13:49.824Z,95.02
2022-10-02T04:16:20.287Z,94.70
2022-10-02T04:18:54.862Z,95.01
2022-10-02T04:21:31.129Z,94.74
2022-10-02T04:24:03.575Z,94.86
2022-10-02T04:26:35.607Z,95.10
2022-10-02T04:29:10.295Z,95.36
2022-10-02T04:31:38.409Z,95.08
2022-10-02T04:34:11.687Z,95.82
2022-10-02T04:36:47.287Z,95.72
2022-10-02T04:39:26.108Z,96.07
2022-10-02T04:42:02.973Z,96.08
2022-10-02T04:44:47.773Z,96.00
2022-10-02T04:47:29.973Z,95.88
2022-10-02T04:50:20.318Z,95.06
2022-10-02T04:53:12.069Z,95.14
2022-10-02T04:55:53.836Z,95.13
2022-10-02T04:58:47.463Z,95.09
2022-10-02T05:01:26.304Z,93.56
2022-10-02T05:04:05.536Z,92.35
2022-10-02T05:06:43.214Z,91.18
2022-10-02T05:09:18.048Z,91.22
2022-10-02T05:11:55.209Z,91.20
2022-10-02T05:14:37.421Z,90.83
2022-10-02T05:17:16.153Z,91.26
2022-10-02T05:20:03.749Z,91.65
2022-10-02T05:22:50.133Z,91.59
2022-10-02T05:25:39.233Z,92.44
2022-10-02T05:28:28.586Z,92.45
2022-10-02T05:31:05.342Z,92.90
2022-10-02T05:33:48.647Z,93.37
2022-10-02T05:36:47.605Z,93.18
2022-10-02T05:39:21.273Z,94.04
2022-10-02T05:41:54.277Z,93.83
2022-10-02T05:44:27.630Z,93.86
2022-10-02T05:47:01.774Z,94.37
2022-10-02T05:49:35.020Z,94.56
2022-10-02T05:52:06.955Z,95.01
2022-10-02T05:54:43.901Z,94.90
2022-10-02T05:57:18.379Z,95.37
2022-10-02T05:59:52.924Z,95.27
2022-10-02T06:02:28.254Z,95.53
2022-10-02T06:05:01.604Z,95.07
2022-10-02T06:07:31.216Z,95.59
2022-10-02T06:10:04.171Z,95.95
2022-10-02T06:12:35.509Z,95.69
2022-10-02T06:15:08.091Z,96.23
2022-10-02T06:17:40.091Z,95.60
2022-10-02T06:20:16.331Z,96.06
2022-10-02T06:22:48.084Z,95.66
2022-10-02T06:25:22.481Z,95.29
2022-10-02T06:27:56.173Z,95.81
2022-10-02T06:30:24.744Z,96.04
2022-10-02T06:32:56.370Z,95.65
2022-10-02T06:35:37.820Z,95.50
2022-10-02T06:38:17.661Z,95.93
2022-10-02T06:40:51.747Z,95.71
2022-10-02T06:43:33.881Z,95.79
2022-10-02T06:46:10.628Z,96.10
2022-10-02T06:48:44.074Z,96.32
2022-10-02T06:51:18.841Z,95.98
2022-10-02T06:54:22.940Z,95.79
2022-10-02T06:57:14.370Z,95.66
2022-10-02T06:59:55.803Z,95.72
2022-10-02T07:02:45.111Z,95.68
2022-10-02T07:06:01.287Z,96.19
2022-10-02T07:08:37.979Z,96.22
2022-10-02T07:11:12.699Z,96.34
2022-10-02T07:13:53.494Z,96.17
2022-10-02T07:16:41.541Z,96.00
2022-10-02T07:19:22.965Z,96.03
2022-10-02T07:21:58.694Z,96.47
2022-10-02T07:24:50.462Z,95.93
2022-10-02T07:27:22.629Z,96.41
2022-10-02T07:29:55.813Z,96.69
2022-10-02T07:32:42.944Z,96.79
2022-10-02T07:35:45.121Z,96.96
2022-10-02T07:38:24.811Z,96.87
2022-10-02T07:41:01.393Z,96.49
2022-10-02T07:43:39.257Z,96.36
2022-10-02T07:46:17.046Z,96.71
2022-10-02T07:48:55.158Z,96.77
2022-10-02T07:51:50.242Z,96.27
2022-10-02T07:54:33.959Z,96.24
2022-10-02T07:57:09.083Z,96.78
2022-10-02T07:59:41.267Z,96.83
2022-10-02T08:02:28.342Z,96.92
2022-10-02T08:04:59.672Z,97.31
2022-10-02T08:07:28.673Z,96.77
2022-10-02T08:09:57.892Z,96.72
2022-10-02T08:12:29.068Z,96.72
2022-10-02T08:14:57.689Z,96.39
2022-10-02T08:17:31.963Z,97.15
2022-10-02T08:20:05.286Z,96.48
2022-10-02T08:22:36.946Z,96.38
2022-10-02T08:25:10.142Z,97.12
2022-10-02T08:27:49.148Z,96.24
2022-10-02T08:30:18.531Z,96.70
2022-10-02T08:32:48.909Z,96.69
2022-10-02T08:35:17.910Z,97.22
2022-10-02T08:37:59.891Z,97.08
2022-10-02T08:41:05.136Z,97.21
2022-10-02T08:43:55.654Z,97.26
2022-10-02T08:46:58.681Z,97.37
2022-10-02T08:50:08.104Z,97.02
2022-10-02T08:53:24.974Z,97.53
2022-10-02T08:56:23.372Z,97.39
2022-10-02T08:59:19.189Z,97.01
2022-10-02T09:02:09.460Z,97.45
2022-10-02T09:05:19.965Z,96.77
2022-10-02T09:08:19.696Z,96.66
2022-10-02T09:11:02.046Z,97.39
2022-10-02T09:13:51.897Z,96.91
2022-10-02T09:16:29.348Z,97.15
2022-10-02T09:19:03.142Z,96.88
2022-10-02T09:21:52.559Z,96.24
2022-10-02T09:24:46.813Z,96.02
2022-10-02T09:27:38.859Z,95.70
2022-10-02T09:30:33.352Z,96.07
2022-10-02T09:33:43.351Z,96.20
2022-10-02T09:36:47.044Z,97.21
2022-10-02T09:39:33.723Z,96.00
2022-10-02T09:42:40.042Z,96.69
2022-10-02T09:45:51.501Z,97.02
2022-10-02T09:49:03.161Z,97.31
2022-10-02T09:52:02.573Z,97.46
2022-10-02T09:55:10.763Z,97.30
2022-10-02T09:58:09.950Z,97.82
2022-10-02T10:00:55.220Z,97.36
2022-10-02T10:03:43.942Z,97.30
2022-10-02T10:06:31.366Z,97.46
2022-10-02T10:09:44.625Z,97.77
2022-10-02T10:12:49.502Z,98.28
2022-10-02T10:15:58.701Z,97.40
2022-10-02T10:18:49.836Z,97.42
2022-10-02T10:21:38.398Z,97.99
2022-10-02T10:24:16.754Z,97.64
2022-10-02T10:27:11.898Z,97.47
2022-10-02T10:30:01.830Z,97.25
2022-10-02T10:33:04.686Z,97.49
2022-10-02T10:35:48.400Z,97.01
2022-10-02T10:38:38.543Z,97.57
2022-10-02T10:41:19.478Z,97.94
2022-10-02T10:44:15.662Z,97.85
2022-10-02T10:47:04.232Z,96.77
2022-10-02T10:50:04.086Z,96.62
2022-10-02T10:53:04.571Z,96.01
2022-10-02T10:55:50.567Z,95.74
2022-10-02T10:58:23.144Z,96.16
2022-10-02T11:01:07.079Z,96.26
2022-10-02T11:03:58.475Z,96.35
2022-10-02T11:07:01.156Z,96.99
2022-10-02T11:09:47.834Z,97.19
2022-10-02T11:12:28.268Z,97.19
2022-10-02T11:15:07.469Z,97.85
2022-10-02T11:17:54.125Z,97.68
2022-10-02T11:21:01.190Z,97.45
2022-10-02T11:23:48.369Z,97.36
2022-10-02T11:26:39.022Z,97.46
2022-10-02T11:29:53.008Z,97.29
2022-10-02T11:32:44.461Z,96.39
2022-10-02T11:35:21.195Z,96.01
2022-10-02T11:38:07.066Z,97.00
2022-10-02T11:40:50.943Z,97.21
2022-10-02T11:43:29.380Z,97.37
2022-10-02T11:46:09.652Z,97.56
2022-10-02T11:49:20.292Z,97.24
2022-10-02T11:52:08.822Z,96.75
2022-10-02T11:54:50.048Z,95.61
2022-10-02T11:57:36.140Z,94.34
2022-10-02T12:00:12.501Z,95.32
2022-10-02T12:02:45.858Z,95.84
2022-10-02T12:05:39.288Z,95.80
2022-10-02T12:08:14.975Z,96.19
2022-10-02T12:10:50.293Z,96.62
2022-10-02T12:13:31.838Z,96.15
2022-10-02T12:16:07.829Z,96.43
2022-10-02T12:18:46.719Z,95.90
2022-10-02T12:21:44.244Z,96.27
2022-10-02T12:24:34.545Z,97.13
2022-10-02T12:27:10.660Z,97.52
2022-10-02T12:29:46.171Z,96.83
2022-10-02T12:32:26.364Z,96.39
2022-10-02T12:35:02.512Z,96.49
2022-10-02T12:37:36.034Z,96.96
2022-10-02T12:40:10.220Z,96.94
2022-10-02T12:43:05.563Z,97.15
2022-10-02T12:45:48.239Z,97.36
2022-10-02T12:48:24.797Z,95.88
2022-10-02T12:51:10.186Z,96.40
2022-10-02T12:54:03.921Z,96.31
2022-10-02T12:56:46.140Z,96.28
2022-10-02T12:59:18.872Z,96.43
2022-10-02T13:02:20.382Z,96.45
2022-10-02T13:05:46.957Z,95.83
2022-10-02T13:08:29.604Z,96.32
2022-10-02T13:11:04.652Z,96.47
2022-10-02T13:13:55.729Z,96.08
2022-10-02T13:16:29.495Z,97.11
2022-10-02T13:19:09.189Z,97.25
2022-10-02T13:21:47.361Z,96.51
2022-10-02T13:24:42.524Z,96.66
2022-10-02T13:27:21.277Z,97.20
2022-10-02T13:29:59.683Z,97.68
2022-10-02T13:32:48.207Z,97.65
2022-10-02T13:35:36.039Z,97.75
2022-10-02T13:38:25.569Z,98.36
2022-10-02T13:41:01.568Z,97.56
2022-10-02T13:43:40.915Z,97.20
2022-10-02T13:46:18.471Z,97.18
2022-10-02T13:48:55.250Z,97.50
2022-10-02T13:51:30.697Z,97.34
2022-10-02T13:54:11.749Z,97.04
2022-10-02T13:56:49.963Z,96.77
2022-10-02T13:59:29.049Z,96.30
2022-10-02T14:02:08.704Z,96.22
2022-10-02T14:04:46.277Z,96.48
2022-10-02T14:07:29.116Z,97.15
2022-10-02T14:10:05.367Z,97.91
2022-10-02T14:12:41.928Z,97.55
2022-10-02T14:15:26.804Z,98.20
2022-10-02T14:18:20.453Z,97.81
2022-10-02T14:20:52.902Z,97.22
2022-10-02T14:23:40.131Z,96.99
2022-10-02T14:26:15.205Z,96.50
2022-10-02T14:29:06.231Z,97.36
2022-10-02T14:31:58.025Z,97.10
2022-10-02T14:34:49.725Z,97.66
2022-10-02T14:37:31.814Z,97.24
2022-10-02T14:40:03.285Z,97.16
2022-10-02T14:42:39.142Z,96.70
2022-10-02T14:45:23.060Z,96.54
2022-10-02T14:48:12.612Z,96.86
2022-10-02T14:50:49.383Z,96.77
2022-10-02T14:53:56.244Z,96.66
2022-10-02T14:56:35.024Z,96.41
2022-10-02T14:59:13.196Z,96.40
2022-10-02T15:01:46.904Z,97.03
2022-10-02T15:04:26.729Z,95.71
2022-10-02T15:07:06.316Z,95.93
2022-10-02T15:09:41.745Z,95.09
2022-10-02T15:12:17.928Z,96.12
2022-10-02T15:14:55.655Z,96.76
2022-10-02T15:17:51.387Z,96.28
2022-10-02T15:20:27.850Z,96.20
2022-10-02T15:22:59.952Z,96.79
2022-10-02T15:25:49.208Z,96.77
2022-10-02T15:28:36.314Z,97.37
2022-10-02T15:31:13.046Z,97.31
2022-10-02T15:33:44.030Z,98.21
2022-10-02T15:36:41.386Z,97.81
2022-10-02T15:39:27.336Z,97.72
2022-10-02T15:42:05.232Z,97.02
2022-10-02T15:44:55.215Z,97.47
2022-10-02T15:47:35.868Z,97.68
2022-10-02T15:50:13.097Z,98.08
2022-10-02T15:52:45.205Z,98.62
2022-10-02T15:55:21.222Z,98.52
2022-10-02T15:58:03.993Z,98.99
2022-10-02T16:00:59.137Z,99.08
2022-10-02T16:03:32.826Z,98.47
2022-10-02T16:06:03.662Z,98.18
2022-10-02T16:09:03.714Z,98.27
2022-10-02T16:11:55.298Z,98.51
2022-10-02T16:14:31.344Z,98.29
2022-10-02T16:17:24.130Z,98.72
2022-10-02T16:20:23.549Z,98.77
2022-10-02T16:23:02.657Z,99.01
2022-10-02T16:25:41.756Z,99.08
2022-10-02T16:28:21.068Z,99.16
2022-10-02T16:31:05.885Z,98.84
2022-10-02T16:33:43.077Z,99.49
2022-10-02T16:36:31.896Z,98.82
2022-10-02T16:39:15.577Z,97.96
2022-10-02T16:41:58.721Z,97.58
2022-10-02T16:45:02.659Z,98.23
2022-10-02T16:47:35.666Z,97.96
2022-10-02T16:50:15.122Z,98.42
2022-10-02T16:52:47.869Z,98.50
2022-10-02T16:55:22.631Z,98.00
2022-10-02T16:57:55.830Z,98.61
2022-10-02T17:00:27.666Z,98.40
2022-10-02T17:02:58.700Z,97.83
2022-10-02T17:05:31.797Z,97.93
2022-10-02T17:08:02.809Z,97.90
2022-10-02T17:10:39.716Z,98.29
2022-10-02T17:13:17.033Z,97.88
2022-10-02T17:15:48.913Z,97.67
2022-10-02T17:18:25.681Z,98.58
2022-10-02T17:20:56.597Z,98.18
2022-10-02T17:23:29.753Z,97.59
2022-10-02T17:26:02.915Z,98.10
2022-10-02T17:28:36.833Z,98.31
2022-10-02T17:31:24.526Z,98.37
2022-10-02T17:33:54.035Z,98.87
2022-10-02T17:36:30.798Z,98.93
2022-10-02T17:39:22.476Z,99.17
2022-10-02T17:41:55.833Z,99.23
2022-10-02T17:44:39.893Z,99.50
2022-10-02T17:50:27.788Z,100.00
2022-10-02T17:53:16.740Z,99.92
2022-10-02T17:56:30.495Z,100.00
2022-10-02T17:59:40.150Z,100.00
2022-10-02T18:02:19.438Z,99.76
2022-10-02T18:04:59.268Z,99.38
2022-10-02T18:07:38.514Z,100.00
2022-10-02T18:10:17.638Z,100.00
2022-10-02T18:12:57.825Z,100.00
2022-10-02T18:15:34.240Z,99.60
2022-10-02T18:18:15.336Z,99.48
2022-10-02T18:20:51.207Z,99.46
2022-10-02T18:23:37.326Z,99.56
2022-10-02T18:26:18.945Z,99.07
2022-10-02T18:29:03.801Z,99.56
2022-10-02T18:31:55.746Z,99.59
2022-10-02T18:34:50.125Z,99.43
2022-10-02T18:37:28.232Z,99.11
2022-10-02T18:40:07.263Z,99.45
2022-10-02T18:42:48.029Z,98.96
2022-10-02T18:45:37.397Z,99.26
2022-10-02T18:48:19.999Z,99.11
2022-10-02T18:51:08.898Z,99.77
2022-10-02T18:53:47.572Z,99.48
2022-10-02T18:56:22.440Z,99.28
2022-10-02T18:59:02.616Z,99.82
2022-10-02T19:01:46.131Z,99.85
2022-10-02T19:04:31.264Z,100.00
2022-10-02T19:07:05.658Z,99.83
2022-10-02T19:09:35.909Z,100.00
2022-10-02T19:12:15.718Z,99.45
2022-10-02T19:14:49.329Z,99.42
2022-10-02T19:17:19.842Z,99.83
2022-10-02T19:19:47.649Z,99.93
2022-10-02T19:22:21.618Z,99.76
2022-10-02T19:24:52.099Z,99.12
2022-10-02T19:27:25.283Z,98.99
2022-10-02T19:29:57.982Z,98.58
2022-10-02T19:32:28.039Z,98.83
2022-10-02T19:35:04.191Z,99.40
2022-10-02T19:37:34.125Z,98.79
2022-10-02T19:40:04.104Z,99.17
2022-10-02T19:42:38.760Z,99.26
2022-10-02T19:45:09.900Z,99.64
2022-10-02T19:47:41.713Z,99.09
2022-10-02T19:50:21.928Z,99.35
2022-10-02T19:52:54.087Z,99.15
2022-10-02T19:55:24.136Z,99.52
2022-10-02T19:57:55.346Z,99.50
2022-10-02T20:00:26.275Z,99.28
2022-10-02T20:02:56.648Z,99.79
2022-10-02T20:05:26.528Z,99.63
2022-10-02T20:08:01.871Z,99.84
2022-10-02T20:10:34.251Z,99.42
2022-10-02T20:13:08.053Z,100.00
2022-10-02T20:16:00.141Z,100.00
2022-10-02T20:18:28.109Z,100.00
2022-10-02T20:20:59.893Z,100.00
2022-10-02T20:23:29.869Z,99.92
2022-10-02T20:25:59.570Z,100.00
2022-10-02T20:28:30.712Z,99.98
2022-10-02T20:31:03.580Z,99.59
2022-10-02T20:33:36.479Z,99.98
2022-10-02T20:36:09.185Z,99.67
2022-10-02T20:38:40.509Z,99.48
2022-10-02T20:41:13.381Z,100.00
2022-10-02T20:43:45.064Z,100.00
2022-10-02T20:46:42.101Z,100.00
2022-10-02T20:49:52.777Z,99.95
2022-10-02T20:52:52.349Z,100.00
2022-10-02T20:55:26.626Z,100.00
2022-10-02T20:58:31.698Z,100.00
2022-10-02T21:01:15.554Z,99.70
2022-10-02T21:04:07.011Z,99.74
2022-10-02T21:06:47.415Z,99.29
2022-10-02T21:09:49.576Z,99.79
2022-10-02T21:12:44.919Z,99.71
2022-10-02T21:15:31.047Z,99.63
2022-10-02T21:18:19.830Z,99.75
2022-10-02T21:21:03.254Z,99.90
2022-10-02T21:24:08.878Z,100.00
2022-10-02T21:26:57.492Z,99.98
2022-10-02T21:29:35.458Z,99.81
2022-10-02T21:32:27.765Z,100.00
2022-10-02T21:35:17.656Z,99.60
2022-10-02T21:37:58.491Z,99.53
2022-10-02T21:41:08.129Z,100.00
2022-10-02T21:44:11.349Z,100.00
2022-10-02T21:47:01.369Z,99.83
2022-10-02T21:50:04.446Z,99.44
2022-10-02T21:53:15.425Z,99.63
2022-10-02T21:56:01.194Z,99.11
2022-10-02T21:59:06.832Z,99.44
2022-10-02T22:02:08.563Z,99.58
2022-10-02T22:04:53.305Z,99.54
2022-10-02T22:07:22.832Z,99.57
2022-10-02T22:09:57.241Z,99.98
2022-10-02T22:12:38.419Z,99.67
2022-10-02T22:15:13.290Z,99.86
2022-10-02T22:17:52.536Z,99.51
2022-10-02T22:20:44.637Z,99.28
2022-10-02T22:23:30.783Z,99.18
2022-10-02T22:26:10.141Z,99.29
2022-10-02T22:28:44.805Z,99.36
2022-10-02T22:31:42.802Z,99.66
2022-10-02T22:34:23.297Z,99.62
2022-10-02T22:37:21.173Z,99.36
2022-10-02T22:39:55.302Z,99.46
2022-10-02T22:42:29.581Z,99.60
2022-10-02T22:45:01.152Z,99.07
2022-10-02T22:47:32.528Z,99.53
2022-10-02T22:50:05.889Z,99.18
2022-10-02T22:52:37.868Z,99.23
2022-10-02T22:55:11.214Z,99.03
2022-10-02T22:57:44.569Z,98.58
2022-10-02T23:00:17.786Z,98.51
2022-10-02T23:02:49.471Z,98.93
2022-10-02T23:05:22.656Z,99.27
2022-10-02T23:07:54.587Z,98.78
2022-10-02T23:10:29.000Z,99.15
2022-10-02T23:13:04.059Z,99.37
2022-10-02T23:15:39.890Z,99.34
2022-10-02T23:18:19.243Z,98.93
2022-10-02T23:20:52.748Z,98.54
2022-10-02T23:23:23.598Z,99.02
2022-10-02T23:25:53.851Z,98.53
2022-10-02T23:28:28.351Z,98.31
2022-10-02T23:31:03.267Z,98.70
2022-10-02T23:33:40.241Z,99.28
2022-10-02T23:36:17.580Z,98.74
2022-10-02T23:38:51.684Z,98.88
2022-10-02T23:41:40.138Z,99.07
2022-10-02T23:44:23.330Z,99.58
2022-10-02T23:47:03.815Z,99.63
2022-10-02T23:49:34.657Z,98.30
2022-10-02T23:52:15.361Z,98.87
2022-10-02T23:54:52.767Z,98.43
2022-10-02T23:57:33.115Z,99.00
